sensor_id;sensor_type;location;lat;lon;timestamp;pressure;altitude;pressure_sealevel;temperature;humidity
69911;BME280;63555;49.920;17.868;2023-02-04T00:00:59;98111.53;;;3.21;91.52
69911;BME280;63555;49.920;17.868;2023-02-04T00:06:00;98113.66;;;3.14;91.87
69911;BME280;63555;49.920;17.868;2023-02-04T00:11:00;98095.94;;;3.05;91.00
69911;BME280;63555;49.920;17.868;2023-02-04T00:16:01;98095.44;;;2.99;91.55
69911;BME280;63555;49.920;17.868;2023-02-04T00:21:01;98099.22;;;2.93;91.40
69911;BME280;63555;49.920;17.868;2023-02-04T00:26:01;98078.72;;;2.87;91.44
69911;BME280;63555;49.920;17.868;2023-02-04T00:31:02;98086.81;;;2.82;91.11
69911;BME280;63555;49.920;17.868;2023-02-04T00:36:02;98099.97;;;2.79;91.09
69911;BME280;63555;49.920;17.868;2023-02-04T00:41:03;98080.91;;;2.79;91.81
69911;BME280;63555;49.920;17.868;2023-02-04T00:46:03;98086.22;;;2.77;91.65
69911;BME280;63555;49.920;17.868;2023-02-04T00:51:04;98068.81;;;2.78;91.05
69911;BME280;63555;49.920;17.868;2023-02-04T00:56:04;98072.09;;;2.81;91.88
69911;BME280;63555;49.920;17.868;2023-02-04T01:01:05;98068.56;;;2.82;92.00
69911;BME280;63555;49.920;17.868;2023-02-04T01:06:05;98066.63;;;2.86;91.31
69911;BME280;63555;49.920;17.868;2023-02-04T01:11:05;98053.72;;;2.84;91.21
69911;BME280;63555;49.920;17.868;2023-02-04T01:16:06;98030.28;;;2.84;91.20
69911;BME280;63555;49.920;17.868;2023-02-04T01:21:06;98034.56;;;2.85;91.69
69911;BME280;63555;49.920;17.868;2023-02-04T01:26:06;98024.91;;;2.87;90.86
69911;BME280;63555;49.920;17.868;2023-02-04T01:31:07;98009.09;;;2.91;91.15
69911;BME280;63555;49.920;17.868;2023-02-04T01:36:08;98035.88;;;2.93;91.25
69911;BME280;63555;49.920;17.868;2023-02-04T01:41:08;98096.53;;;2.95;91.00
69911;BME280;63555;49.920;17.868;2023-02-04T01:46:08;98134.25;;;2.87;90.93
69911;BME280;63555;49.920;17.868;2023-02-04T01:51:11;98139.72;;;2.50;90.20
69911;BME280;63555;49.920;17.868;2023-02-04T01:56:18;98163.44;;;2.28;89.73
69911;BME280;63555;49.920;17.868;2023-02-04T02:06:38;98173.88;;;2.11;90.21
69911;BME280;63555;49.920;17.868;2023-02-04T02:11:39;98183.81;;;2.03;89.36
69911;BME280;63555;49.920;17.868;2023-02-04T02:16:40;98201.56;;;1.95;89.50
69911;BME280;63555;49.920;17.868;2023-02-04T02:21:52;98205.38;;;1.87;89.42
69911;BME280;63555;49.920;17.868;2023-02-04T02:27:00;98203.47;;;1.74;89.96
69911;BME280;63555;49.920;17.868;2023-02-04T02:32:02;98200.44;;;1.64;90.31
69911;BME280;63555;49.920;17.868;2023-02-04T02:37:03;98205.78;;;1.61;89.89
69911;BME280;63555;49.920;17.868;2023-02-04T02:42:05;98205.00;;;1.59;89.71
69911;BME280;63555;49.920;17.868;2023-02-04T02:47:10;98186.22;;;1.54;89.74
69911;BME280;63555;49.920;17.868;2023-02-04T02:52:12;98207.84;;;1.54;90.24
69911;BME280;63555;49.920;17.868;2023-02-04T02:57:23;98216.25;;;1.59;89.54
69911;BME280;63555;49.920;17.868;2023-02-04T03:02:23;98234.50;;;1.58;90.01
69911;BME280;63555;49.920;17.868;2023-02-04T03:07:24;98252.91;;;1.53;89.41
69911;BME280;63555;49.920;17.868;2023-02-04T03:12:25;98250.13;;;1.39;89.92
69911;BME280;63555;49.920;17.868;2023-02-04T03:17:25;98260.88;;;1.32;90.05
69911;BME280;63555;49.920;17.868;2023-02-04T03:22:26;98286.28;;;1.25;89.88
69911;BME280;63555;49.920;17.868;2023-02-04T03:27:27;98311.00;;;1.15;89.27
69911;BME280;63555;49.920;17.868;2023-02-04T03:32:27;98325.69;;;0.95;89.01
69911;BME280;63555;49.920;17.868;2023-02-04T03:37:27;98337.50;;;0.82;88.78
69911;BME280;63555;49.920;17.868;2023-02-04T03:42:28;98343.78;;;0.77;89.23
69911;BME280;63555;49.920;17.868;2023-02-04T03:47:28;98378.97;;;0.63;88.55
69911;BME280;63555;49.920;17.868;2023-02-04T03:52:28;98428.75;;;0.51;88.73
69911;BME280;63555;49.920;17.868;2023-02-04T03:57:29;98454.41;;;0.37;88.53
69911;BME280;63555;49.920;17.868;2023-02-04T04:02:29;98469.47;;;0.27;88.73
69911;BME280;63555;49.920;17.868;2023-02-04T04:07:29;98500.94;;;0.18;88.53
69911;BME280;63555;49.920;17.868;2023-02-04T04:12:30;98528.69;;;0.16;88.43
69911;BME280;63555;49.920;17.868;2023-02-04T04:17:30;98554.94;;;0.07;88.64
69911;BME280;63555;49.920;17.868;2023-02-04T04:22:30;98590.84;;;-0.07;88.57
69911;BME280;63555;49.920;17.868;2023-02-04T04:27:31;98621.44;;;-0.17;88.69
69911;BME280;63555;49.920;17.868;2023-02-04T04:32:31;98634.69;;;-0.26;88.90
69911;BME280;63555;49.920;17.868;2023-02-04T04:37:31;98664.16;;;-0.28;88.90
69911;BME280;63555;49.920;17.868;2023-02-04T04:42:33;98703.25;;;-0.36;88.41
69911;BME280;63555;49.920;17.868;2023-02-04T04:47:34;98710.34;;;-0.41;88.54
69911;BME280;63555;49.920;17.868;2023-02-04T04:52:34;98729.56;;;-0.48;88.54
69911;BME280;63555;49.920;17.868;2023-02-04T04:57:34;98745.28;;;-0.54;88.50
69911;BME280;63555;49.920;17.868;2023-02-04T05:02:35;98788.66;;;-0.61;88.03
69911;BME280;63555;49.920;17.868;2023-02-04T05:07:35;98806.03;;;-0.65;88.13
69911;BME280;63555;49.920;17.868;2023-02-04T05:12:35;98840.63;;;-0.67;87.97
69911;BME280;63555;49.920;17.868;2023-02-04T05:17:36;98866.56;;;-0.69;87.90
69911;BME280;63555;49.920;17.868;2023-02-04T05:22:36;98896.88;;;-0.72;88.05
69911;BME280;63555;49.920;17.868;2023-02-04T05:27:37;98916.81;;;-0.76;87.90
69911;BME280;63555;49.920;17.868;2023-02-04T05:32:37;98931.63;;;-0.81;87.82
69911;BME280;63555;49.920;17.868;2023-02-04T05:37:38;98955.88;;;-0.83;87.60
69911;BME280;63555;49.920;17.868;2023-02-04T05:42:38;99005.13;;;-0.86;87.48
69911;BME280;63555;49.920;17.868;2023-02-04T05:47:39;99026.00;;;-0.94;87.06
69911;BME280;63555;49.920;17.868;2023-02-04T05:52:39;99048.59;;;-1.01;86.75
69911;BME280;63555;49.920;17.868;2023-02-04T05:57:40;99091.84;;;-1.06;86.88
69911;BME280;63555;49.920;17.868;2023-02-04T06:02:40;99123.91;;;-1.11;87.39
69911;BME280;63555;49.920;17.868;2023-02-04T06:07:40;99150.63;;;-1.11;87.72
69911;BME280;63555;49.920;17.868;2023-02-04T06:12:41;99164.47;;;-1.13;87.88
69911;BME280;63555;49.920;17.868;2023-02-04T06:17:41;99175.81;;;-1.19;88.04
69911;BME280;63555;49.920;17.868;2023-02-04T06:22:41;99201.03;;;-1.29;87.91
69911;BME280;63555;49.920;17.868;2023-02-04T06:27:42;99203.75;;;-1.35;88.53
69911;BME280;63555;49.920;17.868;2023-02-04T06:32:42;99230.53;;;-1.37;88.33
69911;BME280;63555;49.920;17.868;2023-02-04T06:37:43;99223.69;;;-1.40;87.75
69911;BME280;63555;49.920;17.868;2023-02-04T06:42:43;99254.75;;;-1.41;87.71
69911;BME280;63555;49.920;17.868;2023-02-04T06:47:44;99274.56;;;-1.40;87.78
69911;BME280;63555;49.920;17.868;2023-02-04T06:52:45;99287.50;;;-1.40;87.92
69911;BME280;63555;49.920;17.868;2023-02-04T06:57:48;99305.53;;;-1.37;87.57
69911;BME280;63555;49.920;17.868;2023-02-04T07:02:48;99323.63;;;-1.36;87.56
69911;BME280;63555;49.920;17.868;2023-02-04T07:07:49;99360.63;;;-1.32;87.33
69911;BME280;63555;49.920;17.868;2023-02-04T07:12:49;99377.00;;;-1.32;86.93
69911;BME280;63555;49.920;17.868;2023-02-04T07:17:49;99395.03;;;-1.27;87.13
69911;BME280;63555;49.920;17.868;2023-02-04T07:22:50;99404.47;;;-1.24;86.41
69911;BME280;63555;49.920;17.868;2023-02-04T07:27:50;99413.94;;;-1.23;86.38
69911;BME280;63555;49.920;17.868;2023-02-04T07:32:50;99432.06;;;-1.23;86.10
69911;BME280;63555;49.920;17.868;2023-02-04T07:37:51;99437.19;;;-1.22;85.91
69911;BME280;63555;49.920;17.868;2023-02-04T07:42:51;99468.22;;;-1.20;86.04
69911;BME280;63555;49.920;17.868;2023-02-04T07:47:52;99476.88;;;-1.21;85.73
69911;BME280;63555;49.920;17.868;2023-02-04T07:52:52;99501.88;;;-1.22;85.85
69911;BME280;63555;49.920;17.868;2023-02-04T07:57:52;99520.03;;;-1.23;85.26
69911;BME280;63555;49.920;17.868;2023-02-04T08:02:53;99532.09;;;-1.24;84.33
69911;BME280;63555;49.920;17.868;2023-02-04T08:07:53;99542.41;;;-1.21;84.69
69911;BME280;63555;49.920;17.868;2023-02-04T08:12:53;99562.19;;;-1.18;84.61
69911;BME280;63555;49.920;17.868;2023-02-04T08:17:54;99569.91;;;-1.15;84.11
69911;BME280;63555;49.920;17.868;2023-02-04T08:22:55;99596.56;;;-1.10;84.20
69911;BME280;63555;49.920;17.868;2023-02-04T08:27:55;99615.47;;;-1.04;84.31
69911;BME280;63555;49.920;17.868;2023-02-04T08:32:56;99608.41;;;-0.94;84.14
69911;BME280;63555;49.920;17.868;2023-02-04T08:37:56;99635.06;;;-0.89;83.84
69911;BME280;63555;49.920;17.868;2023-02-04T08:42:57;99647.16;;;-0.86;83.20
69911;BME280;63555;49.920;17.868;2023-02-04T08:58:44;99689.44;;;-0.32;80.93
69911;BME280;63555;49.920;17.868;2023-02-04T09:03:44;99679.09;;;-0.34;81.73
69911;BME280;63555;49.920;17.868;2023-02-04T09:08:45;99693.72;;;-0.29;81.24
69911;BME280;63555;49.920;17.868;2023-02-04T09:13:45;99700.56;;;-0.25;81.38
69911;BME280;63555;49.920;17.868;2023-02-04T09:18:45;99726.28;;;-0.15;81.94
69911;BME280;63555;49.920;17.868;2023-02-04T09:23:46;99743.47;;;-0.09;81.54
69911;BME280;63555;49.920;17.868;2023-02-04T09:28:47;99757.44;;;-0.18;80.99
69911;BME280;63555;49.920;17.868;2023-02-04T09:33:48;99766.28;;;-0.29;81.16
69911;BME280;63555;49.920;17.868;2023-02-04T09:38:48;99781.88;;;-0.33;81.27
69911;BME280;63555;49.920;17.868;2023-02-04T09:43:49;99786.56;;;0.49;84.49
69911;BME280;63555;49.920;17.868;2023-02-04T09:48:50;99783.88;;;2.80;80.92
69911;BME280;63555;49.920;17.868;2023-02-04T09:53:51;99784.25;;;3.57;78.37
69911;BME280;63555;49.920;17.868;2023-02-04T09:58:56;99800.47;;;3.07;77.52
69911;BME280;63555;49.920;17.868;2023-02-04T10:03:59;99810.69;;;2.84;77.52
69911;BME280;63555;49.920;17.868;2023-02-04T10:09:00;99803.03;;;3.68;75.87
69911;BME280;63555;49.920;17.868;2023-02-04T10:14:01;99808.34;;;4.70;75.85
69911;BME280;63555;49.920;17.868;2023-02-04T10:19:03;99813.66;;;6.09;71.19
69911;BME280;63555;49.920;17.868;2023-02-04T10:24:16;99804.19;;;6.67;69.78
69911;BME280;63555;49.920;17.868;2023-02-04T10:29:22;99812.91;;;6.48;68.63
69911;BME280;63555;49.920;17.868;2023-02-04T10:34:38;99815.09;;;6.16;67.76
69911;BME280;63555;49.920;17.868;2023-02-04T10:39:41;99814.38;;;6.13;68.25
69911;BME280;63555;49.920;17.868;2023-02-04T10:44:46;99825.66;;;5.46;69.70
69911;BME280;63555;49.920;17.868;2023-02-04T10:54:55;99838.47;;;5.99;69.63
69911;BME280;63555;49.920;17.868;2023-02-04T11:00:00;99852.56;;;6.18;66.28
69911;BME280;63555;49.920;17.868;2023-02-04T11:05:02;99858.25;;;5.61;68.40
69911;BME280;63555;49.920;17.868;2023-02-04T11:10:03;99868.25;;;5.50;68.42
69911;BME280;63555;49.920;17.868;2023-02-04T11:15:04;99886.00;;;5.17;68.46
69911;BME280;63555;49.920;17.868;2023-02-04T11:20:16;99889.28;;;5.47;68.24
69911;BME280;63555;49.920;17.868;2023-02-04T11:25:38;99887.81;;;5.63;67.41
69911;BME280;63555;49.920;17.868;2023-02-04T11:30:39;99906.91;;;4.92;68.18
69911;BME280;63555;49.920;17.868;2023-02-04T11:36:00;99919.72;;;3.61;68.07
69911;BME280;63555;49.920;17.868;2023-02-04T11:41:04;99936.41;;;2.55;70.57
69911;BME280;63555;49.920;17.868;2023-02-04T11:46:15;99932.91;;;1.80;71.12
69911;BME280;63555;49.920;17.868;2023-02-04T11:51:25;99958.06;;;1.35;72.20
69911;BME280;63555;49.920;17.868;2023-02-04T11:56:28;99957.59;;;1.15;73.51
69911;BME280;63555;49.920;17.868;2023-02-04T12:01:33;99970.78;;;1.04;73.16
69911;BME280;63555;49.920;17.868;2023-02-04T12:06:35;99984.66;;;1.02;73.66
69911;BME280;63555;49.920;17.868;2023-02-04T12:11:35;99990.00;;;0.94;73.47
69911;BME280;63555;49.920;17.868;2023-02-04T12:16:43;99990.16;;;0.82;73.00
69911;BME280;63555;49.920;17.868;2023-02-04T12:21:44;99992.09;;;0.71;73.31
69911;BME280;63555;49.920;17.868;2023-02-04T12:26:44;99987.94;;;0.59;73.44
69911;BME280;63555;49.920;17.868;2023-02-04T12:31:46;100002.59;;;0.61;73.17
69911;BME280;63555;49.920;17.868;2023-02-04T12:36:46;99998.16;;;0.70;72.67
69911;BME280;63555;49.920;17.868;2023-02-04T12:41:47;99996.38;;;0.73;72.38
69911;BME280;63555;49.920;17.868;2023-02-04T12:46:47;99989.47;;;0.72;72.75
69911;BME280;63555;49.920;17.868;2023-02-04T12:51:47;100001.50;;;0.76;72.44
69911;BME280;63555;49.920;17.868;2023-02-04T12:56:48;99988.41;;;0.84;72.73
69911;BME280;63555;49.920;17.868;2023-02-04T13:01:48;99975.50;;;0.79;72.26
69911;BME280;63555;49.920;17.868;2023-02-04T13:06:49;99991.19;;;0.72;72.15
69911;BME280;63555;49.920;17.868;2023-02-04T13:11:49;100000.53;;;0.83;72.88
69911;BME280;63555;49.920;17.868;2023-02-04T13:16:49;100012.47;;;0.97;72.81
69911;BME280;63555;49.920;17.868;2023-02-04T13:21:50;100022.59;;;1.12;73.56
69911;BME280;63555;49.920;17.868;2023-02-04T13:26:50;100010.91;;;1.36;73.46
69911;BME280;63555;49.920;17.868;2023-02-04T13:31:51;100028.75;;;1.54;73.56
69911;BME280;63555;49.920;17.868;2023-02-04T13:36:51;100021.75;;;1.57;72.76
69911;BME280;63555;49.920;17.868;2023-02-04T13:41:52;100030.38;;;1.59;72.16
69911;BME280;63555;49.920;17.868;2023-02-04T13:46:53;100032.31;;;1.48;72.05
69911;BME280;63555;49.920;17.868;2023-02-04T13:51:53;100037.84;;;1.30;71.69
69911;BME280;63555;49.920;17.868;2023-02-04T13:56:54;100036.59;;;1.02;71.67
69911;BME280;63555;49.920;17.868;2023-02-04T14:01:54;100057.03;;;0.66;72.46
69911;BME280;63555;49.920;17.868;2023-02-04T14:06:55;100072.63;;;-0.03;73.03
69911;BME280;63555;49.920;17.868;2023-02-04T14:11:55;100061.88;;;-0.45;74.44
69911;BME280;63555;49.920;17.868;2023-02-04T14:16:56;100074.00;;;-0.50;74.65
69911;BME280;63555;49.920;17.868;2023-02-04T14:21:56;100086.97;;;-0.48;74.68
69911;BME280;63555;49.920;17.868;2023-02-04T14:26:57;100090.31;;;-0.40;74.31
69911;BME280;63555;49.920;17.868;2023-02-04T14:31:58;100098.94;;;-0.38;74.23
69911;BME280;63555;49.920;17.868;2023-02-04T14:36:58;100099.75;;;-0.32;74.20
69911;BME280;63555;49.920;17.868;2023-02-04T14:47:55;100123.09;;;-0.33;73.99
69911;BME280;63555;49.920;17.868;2023-02-04T14:52:56;100115.50;;;-0.53;74.13
69911;BME280;63555;49.920;17.868;2023-02-04T14:57:57;100111.41;;;-0.78;74.34
69911;BME280;63555;49.920;17.868;2023-02-04T15:02:57;100116.63;;;-0.89;74.83
69911;BME280;63555;49.920;17.868;2023-02-04T15:07:58;100122.66;;;-0.84;74.40
69911;BME280;63555;49.920;17.868;2023-02-04T15:12:58;100126.97;;;-0.81;74.48
69911;BME280;63555;49.920;17.868;2023-02-04T15:17:58;100133.00;;;-0.82;74.35
69911;BME280;63555;49.920;17.868;2023-02-04T15:22:59;100133.03;;;-0.84;74.61
69911;BME280;63555;49.920;17.868;2023-02-04T15:27:59;100135.63;;;-0.90;74.77
69911;BME280;63555;49.920;17.868;2023-02-04T15:33:00;100134.84;;;-1.00;74.30
69911;BME280;63555;49.920;17.868;2023-02-04T15:38:00;100154.81;;;-1.23;73.99
69911;BME280;63555;49.920;17.868;2023-02-04T15:43:00;100154.03;;;-1.37;74.33
69911;BME280;63555;49.920;17.868;2023-02-04T15:48:01;100152.38;;;-1.46;74.10
69911;BME280;63555;49.920;17.868;2023-02-04T15:53:02;100155.00;;;-1.56;74.28
69911;BME280;63555;49.920;17.868;2023-02-04T15:58:02;100159.34;;;-1.62;74.45
69911;BME280;63555;49.920;17.868;2023-02-04T16:03:03;100165.34;;;-1.55;74.71
69911;BME280;63555;49.920;17.868;2023-02-04T16:08:04;100164.44;;;-1.48;74.34
69911;BME280;63555;49.920;17.868;2023-02-04T16:13:05;100173.91;;;-1.44;74.45
69911;BME280;63555;49.920;17.868;2023-02-04T16:18:08;100173.94;;;-1.51;74.10
69911;BME280;63555;49.920;17.868;2023-02-04T16:23:08;100181.72;;;-1.51;74.02
69911;BME280;63555;49.920;17.868;2023-02-04T16:28:09;100179.13;;;-1.50;74.32
69911;BME280;63555;49.920;17.868;2023-02-04T16:33:09;100179.97;;;-1.48;74.42
69911;BME280;63555;49.920;17.868;2023-02-04T16:38:10;100186.88;;;-1.50;74.20
69911;BME280;63555;49.920;17.868;2023-02-04T16:43:10;100188.63;;;-1.53;74.03
69911;BME280;63555;49.920;17.868;2023-02-04T16:48:10;100197.22;;;-1.54;74.49
69911;BME280;63555;49.920;17.868;2023-02-04T16:53:11;100206.75;;;-1.63;74.15
69911;BME280;63555;49.920;17.868;2023-02-04T16:58:15;100210.22;;;-1.77;74.09
69911;BME280;63555;49.920;17.868;2023-02-04T17:03:16;100217.13;;;-1.90;74.19
69911;BME280;63555;49.920;17.868;2023-02-04T17:08:16;100218.00;;;-1.99;74.71
69911;BME280;63555;49.920;17.868;2023-02-04T17:13:17;100221.47;;;-2.10;74.69
69911;BME280;63555;49.920;17.868;2023-02-04T17:18:17;100232.69;;;-2.19;75.47
69911;BME280;63555;49.920;17.868;2023-02-04T17:23:18;100236.97;;;-2.16;75.88
69911;BME280;63555;49.920;17.868;2023-02-04T17:28:18;100232.66;;;-2.08;76.07
69911;BME280;63555;49.920;17.868;2023-02-04T17:33:18;100227.50;;;-1.99;75.60
69911;BME280;63555;49.920;17.868;2023-02-04T17:38:19;100234.38;;;-1.90;75.80
69911;BME280;63555;49.920;17.868;2023-02-04T17:43:22;100241.28;;;-1.97;75.21
69911;BME280;63555;49.920;17.868;2023-02-04T17:48:23;100243.88;;;-2.06;75.34
69911;BME280;63555;49.920;17.868;2023-02-04T17:53:23;100249.03;;;-2.14;75.31
69911;BME280;63555;49.920;17.868;2023-02-04T17:58:25;100254.22;;;-2.12;75.75
69911;BME280;63555;49.920;17.868;2023-02-04T18:03:27;100253.34;;;-2.02;75.91
69911;BME280;63555;49.920;17.868;2023-02-04T18:08:41;100255.91;;;-1.92;76.45
69911;BME280;63555;49.920;17.868;2023-02-04T18:13:41;100250.72;;;-1.82;76.34
69911;BME280;63555;49.920;17.868;2023-02-04T18:18:42;100249.84;;;-1.75;76.67
69911;BME280;63555;49.920;17.868;2023-02-04T18:23:42;100249.88;;;-1.68;76.58
69911;BME280;63555;49.920;17.868;2023-02-04T18:28:48;100253.31;;;-1.64;76.27
69911;BME280;63555;49.920;17.868;2023-02-04T18:33:48;100247.25;;;-1.62;76.26
69911;BME280;63555;49.920;17.868;2023-02-04T18:38:49;100253.28;;;-1.63;76.32
69911;BME280;63555;49.920;17.868;2023-02-04T18:43:59;100253.31;;;-1.66;76.28
69911;BME280;63555;49.920;17.868;2023-02-04T18:54:24;100272.28;;;-1.71;76.74
69911;BME280;63555;49.920;17.868;2023-02-04T18:59:26;100280.91;;;-1.71;77.10
69911;BME280;63555;49.920;17.868;2023-02-04T19:04:32;100270.56;;;-1.68;76.86
69911;BME280;63555;49.920;17.868;2023-02-04T19:09:35;100276.56;;;-1.66;77.25
69911;BME280;63555;49.920;17.868;2023-02-04T19:14:41;100284.34;;;-1.69;77.07
69911;BME280;63555;49.920;17.868;2023-02-04T19:20:30;100274.00;;;-1.82;77.06
69911;BME280;63555;49.920;17.868;2023-02-04T19:35:37;100270.56;;;-2.10;77.29
69911;BME280;63555;49.920;17.868;2023-02-04T19:40:38;100273.16;;;-2.12;77.52
69911;BME280;63555;49.920;17.868;2023-02-04T19:45:41;100262.81;;;-2.12;77.93
69911;BME280;63555;49.920;17.868;2023-02-04T19:50:44;100268.00;;;-2.10;77.87
69911;BME280;63555;49.920;17.868;2023-02-04T19:55:45;100259.38;;;-2.08;77.40
69911;BME280;63555;49.920;17.868;2023-02-04T20:01:00;100267.13;;;-2.08;77.72
69911;BME280;63555;49.920;17.868;2023-02-04T20:06:33;100268.00;;;-2.10;78.06
69911;BME280;63555;49.920;17.868;2023-02-04T20:11:37;100272.28;;;-2.11;78.05
69911;BME280;63555;49.920;17.868;2023-02-04T20:16:48;100276.59;;;-2.13;78.21
69911;BME280;63555;49.920;17.868;2023-02-04T20:32:20;100303.22;;;-2.63;77.53
69911;BME280;63555;49.920;17.868;2023-02-04T20:37:28;100308.34;;;-2.79;77.97
69911;BME280;63555;49.920;17.868;2023-02-04T20:47:33;100315.19;;;-2.91;79.26
69911;BME280;63555;49.920;17.868;2023-02-04T20:57:40;100327.28;;;-2.77;79.12
69911;BME280;63555;49.920;17.868;2023-02-04T21:02:40;100324.66;;;-2.88;78.84
69911;BME280;63555;49.920;17.868;2023-02-04T21:07:40;100337.50;;;-2.99;79.15
69911;BME280;63555;49.920;17.868;2023-02-04T21:12:41;100338.38;;;-2.95;79.93
69911;BME280;63555;49.920;17.868;2023-02-04T21:17:44;100343.56;;;-2.91;79.72
69911;BME280;63555;49.920;17.868;2023-02-04T21:22:45;100341.03;;;-2.77;80.06
69911;BME280;63555;49.920;17.868;2023-02-04T21:27:45;100349.72;;;-2.57;80.19
69911;BME280;63555;49.920;17.868;2023-02-04T21:32:45;100355.81;;;-2.41;79.94
69911;BME280;63555;49.920;17.868;2023-02-04T21:37:46;100356.69;;;-2.33;79.16
69911;BME280;63555;49.920;17.868;2023-02-04T21:42:48;100352.38;;;-2.31;78.90
69911;BME280;63555;49.920;17.868;2023-02-04T21:47:49;100356.69;;;-2.28;79.39
69911;BME280;63555;49.920;17.868;2023-02-04T21:52:50;100356.69;;;-2.22;79.14
69911;BME280;63555;49.920;17.868;2023-02-04T21:57:50;100363.56;;;-2.30;78.64
69911;BME280;63555;49.920;17.868;2023-02-04T22:02:52;100376.44;;;-2.53;78.27
69911;BME280;63555;49.920;17.868;2023-02-04T22:07:52;100372.88;;;-2.75;78.33
69911;BME280;63555;49.920;17.868;2023-02-04T22:12:52;100378.00;;;-2.82;78.78
69911;BME280;63555;49.920;17.868;2023-02-04T22:17:53;100379.72;;;-2.89;78.93
69911;BME280;63555;49.920;17.868;2023-02-04T22:22:54;100388.28;;;-2.92;79.20
69911;BME280;63555;49.920;17.868;2023-02-04T22:27:55;100395.22;;;-2.84;79.79
69911;BME280;63555;49.920;17.868;2023-02-04T22:32:55;100397.84;;;-2.72;80.14
69911;BME280;63555;49.920;17.868;2023-02-04T22:37:55;100394.50;;;-2.54;79.82
69911;BME280;63555;49.920;17.868;2023-02-04T22:42:57;100403.16;;;-2.37;80.10
69911;BME280;63555;49.920;17.868;2023-02-04T22:47:57;100391.13;;;-2.26;79.87
69911;BME280;63555;49.920;17.868;2023-02-04T22:52:58;100408.38;;;-2.27;79.08
69911;BME280;63555;49.920;17.868;2023-02-04T22:57:58;100401.47;;;-2.31;79.01
69911;BME280;63555;49.920;17.868;2023-02-04T23:02:58;100400.63;;;-2.25;79.05
69911;BME280;63555;49.920;17.868;2023-02-04T23:07:59;100404.91;;;-2.26;78.82
69911;BME280;63555;49.920;17.868;2023-02-04T23:12:59;100421.25;;;-2.33;78.55
69911;BME280;63555;49.920;17.868;2023-02-04T23:17:59;100419.53;;;-2.40;78.46
69911;BME280;63555;49.920;17.868;2023-02-04T23:23:00;100417.78;;;-2.42;78.93
69911;BME280;63555;49.920;17.868;2023-02-04T23:28:02;100422.09;;;-2.46;78.53
69911;BME280;63555;49.920;17.868;2023-02-04T23:33:02;100428.06;;;-2.56;78.65
69911;BME280;63555;49.920;17.868;2023-02-04T23:38:02;100430.53;;;-2.74;78.10
69911;BME280;63555;49.920;17.868;2023-02-04T23:43:03;100432.19;;;-2.89;78.45
69911;BME280;63555;49.920;17.868;2023-02-04T23:48:04;100433.88;;;-2.97;78.84
69911;BME280;63555;49.920;17.868;2023-02-04T23:53:05;100426.16;;;-2.91;79.30
69911;BME280;63555;49.920;17.868;2023-02-04T23:58:05;100432.25;;;-2.75;79.11
